sensor_id;sensor_type;location;lat;lon;timestamp;temperature;humidity
7512;DHT22;9999;48.780;9.146;2024-03-23T00:53:34;11.30;99.90
7512;DHT22;9999;48.780;9.146;2024-03-23T00:56:00;11.30;99.90
7512;DHT22;9999;48.780;9.146;2024-03-23T00:58:26;11.40;99.90
7512;DHT22;9999;48.780;9.146;2024-03-23T01:00:53;11.40;99.90
7512;DHT22;9999;48.780;9.146;2024-03-23T01:03:19;11.40;99.90
7512;DHT22;9999;48.780;9.146;2024-03-23T01:05:45;11.40;99.90
7512;DHT22;9999;48.780;9.146;2024-03-23T01:08:11;11.40;99.90
7512;DHT22;9999;48.780;9.146;2024-03-23T01:10:39;11.50;99.90
7512;DHT22;9999;48.780;9.146;2024-03-23T01:13:05;11.50;99.90
7512;DHT22;9999;48.780;9.146;2024-03-23T01:15:32;11.60;99.90
7512;DHT22;9999;48.780;9.146;2024-03-23T01:17:57;11.70;99.90
7512;DHT22;9999;48.780;9.146;2024-03-23T01:20:24;11.70;99.90
7512;DHT22;9999;48.780;9.146;2024-03-23T01:22:50;11.70;99.90
7512;DHT22;9999;48.780;9.146;2024-03-23T01:25:17;11.60;99.90
7512;DHT22;9999;48.780;9.146;2024-03-23T01:27:44;11.60;99.90
7512;DHT22;9999;48.780;9.146;2024-03-23T01:30:11;11.60;99.90
7512;DHT22;9999;48.780;9.146;2024-03-23T01:32:39;11.60;99.90
7512;DHT22;9999;48.780;9.146;2024-03-23T01:35:06;11.60;99.90
7512;DHT22;9999;48.780;9.146;2024-03-23T01:37:32;11.70;99.90
7512;DHT22;9999;48.780;9.146;2024-03-23T01:39:59;11.60;99.90
7512;DHT22;9999;48.780;9.146;2024-03-23T01:42:24;11.60;99.90
7512;DHT22;9999;48.780;9.146;2024-03-23T01:44:53;11.50;99.90
7512;DHT22;9999;48.780;9.146;2024-03-23T01:47:19;11.50;99.90
7512;DHT22;9999;48.780;9.146;2024-03-23T01:49:45;11.40;99.90
7512;DHT22;9999;48.780;9.146;2024-03-23T01:52:11;11.40;99.90
7512;DHT22;9999;48.780;9.146;2024-03-23T01:54:38;11.40;99.90
7512;DHT22;9999;48.780;9.146;2024-03-23T01:57:04;11.40;99.90
7512;DHT22;9999;48.780;9.146;2024-03-23T01:59:32;11.40;99.90
7512;DHT22;9999;48.780;9.146;2024-03-23T02:01:59;11.40;99.90
7512;DHT22;9999;48.780;9.146;2024-03-23T02:04:27;11.50;99.90
7512;DHT22;9999;48.780;9.146;2024-03-23T02:06:53;11.50;99.90
7512;DHT22;9999;48.780;9.146;2024-03-23T02:09:20;11.50;99.90
7512;DHT22;9999;48.780;9.146;2024-03-23T02:11:46;11.40;99.90
7512;DHT22;9999;48.780;9.146;2024-03-23T02:14:12;11.40;99.90
7512;DHT22;9999;48.780;9.146;2024-03-23T02:16:38;11.40;99.90
7512;DHT22;9999;48.780;9.146;2024-03-23T02:19:06;11.40;99.90
7512;DHT22;9999;48.780;9.146;2024-03-23T02:21:32;11.40;99.90
7512;DHT22;9999;48.780;9.146;2024-03-23T02:24:01;11.40;99.90
7512;DHT22;9999;48.780;9.146;2024-03-23T02:26:27;11.40;99.90
7512;DHT22;9999;48.780;9.146;2024-03-23T02:28:53;11.30;99.90
7512;DHT22;9999;48.780;9.146;2024-03-23T02:31:19;11.40;99.90
7512;DHT22;9999;48.780;9.146;2024-03-23T02:33:46;11.40;99.90
7512;DHT22;9999;48.780;9.146;2024-03-23T02:36:12;11.40;99.90
7512;DHT22;9999;48.780;9.146;2024-03-23T02:38:38;11.40;99.90
7512;DHT22;9999;48.780;9.146;2024-03-23T02:41:06;11.40;99.90
7512;DHT22;9999;48.780;9.146;2024-03-23T02:43:32;11.40;99.90
7512;DHT22;9999;48.780;9.146;2024-03-23T02:45:58;11.40;99.90
7512;DHT22;9999;48.780;9.146;2024-03-23T02:48:27;11.40;99.90
7512;DHT22;9999;48.780;9.146;2024-03-23T02:50:53;11.40;99.90
7512;DHT22;9999;48.780;9.146;2024-03-23T02:53:20;11.40;99.90
7512;DHT22;9999;48.780;9.146;2024-03-23T02:55:46;11.40;99.90
7512;DHT22;9999;48.780;9.146;2024-03-23T02:58:14;11.50;99.90
7512;DHT22;9999;48.780;9.146;2024-03-23T03:00:40;11.40;99.90
7512;DHT22;9999;48.780;9.146;2024-03-23T03:03:07;11.40;99.90
7512;DHT22;9999;48.780;9.146;2024-03-23T03:05:33;11.40;99.90
7512;DHT22;9999;48.780;9.146;2024-03-23T03:07:59;11.30;99.90
7512;DHT22;9999;48.780;9.146;2024-03-23T03:10:25;11.30;99.90
7512;DHT22;9999;48.780;9.146;2024-03-23T03:12:52;11.30;99.90
7512;DHT22;9999;48.780;9.146;2024-03-23T03:15:19;11.40;99.90
7512;DHT22;9999;48.780;9.146;2024-03-23T03:17:46;11.40;99.90
7512;DHT22;9999;48.780;9.146;2024-03-23T03:20:12;11.40;99.90
7512;DHT22;9999;48.780;9.146;2024-03-23T03:22:40;11.30;99.90
7512;DHT22;9999;48.780;9.146;2024-03-23T03:25:06;11.20;99.90
7512;DHT22;9999;48.780;9.146;2024-03-23T03:27:33;11.20;99.90
7512;DHT22;9999;48.780;9.146;2024-03-23T03:30:00;11.20;99.90
7512;DHT22;9999;48.780;9.146;2024-03-23T03:32:29;11.20;99.90
7512;DHT22;9999;48.780;9.146;2024-03-23T03:34:55;11.00;99.90
7512;DHT22;9999;48.780;9.146;2024-03-23T03:37:22;11.00;99.90
7512;DHT22;9999;48.780;9.146;2024-03-23T03:39:48;11.00;99.90
7512;DHT22;9999;48.780;9.146;2024-03-23T03:42:14;11.00;99.90
7512;DHT22;9999;48.780;9.146;2024-03-23T03:44:40;11.00;99.90
7512;DHT22;9999;48.780;9.146;2024-03-23T03:47:07;11.00;99.90
7512;DHT22;9999;48.780;9.146;2024-03-23T03:49:34;10.90;99.90
7512;DHT22;9999;48.780;9.146;2024-03-23T03:52:01;10.90;99.90
7512;DHT22;9999;48.780;9.146;2024-03-23T03:54:27;10.90;99.90
7512;DHT22;9999;48.780;9.146;2024-03-23T03:56:54;11.00;99.90
7512;DHT22;9999;48.780;9.146;2024-03-23T03:59:20;10.90;99.90
7512;DHT22;9999;48.780;9.146;2024-03-23T04:01:46;10.80;99.90
7512;DHT22;9999;48.780;9.146;2024-03-23T04:04:12;10.80;99.90
7512;DHT22;9999;48.780;9.146;2024-03-23T04:06:43;10.90;99.90
7512;DHT22;9999;48.780;9.146;2024-03-23T04:09:09;10.90;99.90
7512;DHT22;9999;48.780;9.146;2024-03-23T04:11:36;10.80;99.90
7512;DHT22;9999;48.780;9.146;2024-03-23T04:14:02;10.80;99.90
7512;DHT22;9999;48.780;9.146;2024-03-23T04:16:30;10.80;99.90
7512;DHT22;9999;48.780;9.146;2024-03-23T04:18:55;10.80;99.90
7512;DHT22;9999;48.780;9.146;2024-03-23T04:21:22;10.90;99.90
7512;DHT22;9999;48.780;9.146;2024-03-23T04:23:50;10.90;99.90
7512;DHT22;9999;48.780;9.146;2024-03-23T04:26:16;10.90;99.90
7512;DHT22;9999;48.780;9.146;2024-03-23T04:28:42;10.80;99.90
7512;DHT22;9999;48.780;9.146;2024-03-23T04:31:09;11.00;99.90
7512;DHT22;9999;48.780;9.146;2024-03-23T04:33:35;11.00;99.90
7512;DHT22;9999;48.780;9.146;2024-03-23T04:36:02;11.10;99.90
7512;DHT22;9999;48.780;9.146;2024-03-23T04:38:28;11.20;99.90
7512;DHT22;9999;48.780;9.146;2024-03-23T04:40:57;11.20;99.90
7512;DHT22;9999;48.780;9.146;2024-03-23T04:43:23;11.20;99.90
7512;DHT22;9999;48.780;9.146;2024-03-23T04:45:49;11.10;99.90
7512;DHT22;9999;48.780;9.146;2024-03-23T04:48:16;11.00;99.90
7512;DHT22;9999;48.780;9.146;2024-03-23T04:50:43;11.00;99.90
7512;DHT22;9999;48.780;9.146;2024-03-23T04:53:09;10.90;99.90
7512;DHT22;9999;48.780;9.146;2024-03-23T04:55:36;10.80;99.90
7512;DHT22;9999;48.780;9.146;2024-03-23T04:58:04;10.70;99.90
7512;DHT22;9999;48.780;9.146;2024-03-23T05:00:30;10.70;99.90
7512;DHT22;9999;48.780;9.146;2024-03-23T05:02:57;10.70;99.90
7512;DHT22;9999;48.780;9.146;2024-03-23T05:05:23;10.70;99.90
7512;DHT22;9999;48.780;9.146;2024-03-23T05:07:49;10.60;99.90
7512;DHT22;9999;48.780;9.146;2024-03-23T05:10:15;10.50;99.90
7512;DHT22;9999;48.780;9.146;2024-03-23T05:12:42;10.40;99.90
7512;DHT22;9999;48.780;9.146;2024-03-23T05:15:10;10.40;99.90
7512;DHT22;9999;48.780;9.146;2024-03-23T05:17:38;10.40;99.90
7512;DHT22;9999;48.780;9.146;2024-03-23T05:20:04;10.50;99.90
7512;DHT22;9999;48.780;9.146;2024-03-23T05:22:35;10.40;99.90
7512;DHT22;9999;48.780;9.146;2024-03-23T05:25:01;10.30;99.90
7512;DHT22;9999;48.780;9.146;2024-03-23T05:27:30;10.30;99.90
7512;DHT22;9999;48.780;9.146;2024-03-23T05:29:55;10.30;99.90
7512;DHT22;9999;48.780;9.146;2024-03-23T05:32:24;10.20;99.90
7512;DHT22;9999;48.780;9.146;2024-03-23T05:34:50;10.10;99.90
7512;DHT22;9999;48.780;9.146;2024-03-23T05:37:21;10.10;99.90
7512;DHT22;9999;48.780;9.146;2024-03-23T05:39:47;10.00;99.90
7512;DHT22;9999;48.780;9.146;2024-03-23T05:42:15;10.00;99.90
7512;DHT22;9999;48.780;9.146;2024-03-23T05:44:43;9.90;99.90
7512;DHT22;9999;48.780;9.146;2024-03-23T05:47:09;9.90;99.90
7512;DHT22;9999;48.780;9.146;2024-03-23T05:49:37;9.90;99.90
7512;DHT22;9999;48.780;9.146;2024-03-23T05:52:04;9.80;99.90
7512;DHT22;9999;48.780;9.146;2024-03-23T05:54:30;9.80;99.90
7512;DHT22;9999;48.780;9.146;2024-03-23T05:56:57;9.80;99.90
7512;DHT22;9999;48.780;9.146;2024-03-23T05:59:22;9.70;99.90
7512;DHT22;9999;48.780;9.146;2024-03-23T06:01:49;9.60;99.90
7512;DHT22;9999;48.780;9.146;2024-03-23T06:04:15;9.50;99.90
7512;DHT22;9999;48.780;9.146;2024-03-23T06:06:43;9.40;99.90
7512;DHT22;9999;48.780;9.146;2024-03-23T06:09:09;9.30;99.90
7512;DHT22;9999;48.780;9.146;2024-03-23T06:11:35;9.30;99.90
7512;DHT22;9999;48.780;9.146;2024-03-23T06:14:01;9.30;99.90
7512;DHT22;9999;48.780;9.146;2024-03-23T06:16:28;9.30;99.90
7512;DHT22;9999;48.780;9.146;2024-03-23T06:18:56;9.30;99.90
7512;DHT22;9999;48.780;9.146;2024-03-23T06:21:24;9.20;99.90
7512;DHT22;9999;48.780;9.146;2024-03-23T06:23:52;9.20;99.90
7512;DHT22;9999;48.780;9.146;2024-03-23T06:26:19;9.20;99.90
7512;DHT22;9999;48.780;9.146;2024-03-23T06:28:46;9.10;99.90
7512;DHT22;9999;48.780;9.146;2024-03-23T06:31:13;9.00;99.90
7512;DHT22;9999;48.780;9.146;2024-03-23T06:33:39;9.00;99.90
7512;DHT22;9999;48.780;9.146;2024-03-23T06:36:10;9.00;99.90
7512;DHT22;9999;48.780;9.146;2024-03-23T06:38:36;9.00;99.90
7512;DHT22;9999;48.780;9.146;2024-03-23T06:41:05;8.90;99.90
7512;DHT22;9999;48.780;9.146;2024-03-23T06:43:31;8.90;99.90
7512;DHT22;9999;48.780;9.146;2024-03-23T06:45:58;8.90;99.90
7512;DHT22;9999;48.780;9.146;2024-03-23T06:48:24;8.90;99.90
7512;DHT22;9999;48.780;9.146;2024-03-23T06:50:55;8.90;99.90
7512;DHT22;9999;48.780;9.146;2024-03-23T06:53:21;8.90;99.90
7512;DHT22;9999;48.780;9.146;2024-03-23T06:55:50;8.90;99.90
7512;DHT22;9999;48.780;9.146;2024-03-23T06:58:19;8.70;99.90
7512;DHT22;9999;48.780;9.146;2024-03-23T07:00:45;8.70;99.90
7512;DHT22;9999;48.780;9.146;2024-03-23T07:03:11;8.70;99.90
7512;DHT22;9999;48.780;9.146;2024-03-23T07:05:38;8.70;99.90
7512;DHT22;9999;48.780;9.146;2024-03-23T07:08:05;8.80;99.90
7512;DHT22;9999;48.780;9.146;2024-03-23T07:10:31;8.70;99.90
7512;DHT22;9999;48.780;9.146;2024-03-23T07:12:57;8.70;99.90
7512;DHT22;9999;48.780;9.146;2024-03-23T07:15:25;8.70;99.90
7512;DHT22;9999;48.780;9.146;2024-03-23T07:17:51;8.80;99.90
7512;DHT22;9999;48.780;9.146;2024-03-23T07:20:18;8.70;99.90
7512;DHT22;9999;48.780;9.146;2024-03-23T07:22:45;8.80;99.90
7512;DHT22;9999;48.780;9.146;2024-03-23T07:25:12;9.20;99.90
7512;DHT22;9999;48.780;9.146;2024-03-23T07:27:38;9.60;99.90
7512;DHT22;9999;48.780;9.146;2024-03-23T07:30:08;9.70;99.90
7512;DHT22;9999;48.780;9.146;2024-03-23T07:32:35;9.70;99.90
7512;DHT22;9999;48.780;9.146;2024-03-23T07:35:02;9.70;99.90
7512;DHT22;9999;48.780;9.146;2024-03-23T07:37:29;9.50;99.90
7512;DHT22;9999;48.780;9.146;2024-03-23T07:39:56;9.50;99.90
7512;DHT22;9999;48.780;9.146;2024-03-23T07:42:23;9.30;99.90
7512;DHT22;9999;48.780;9.146;2024-03-23T07:44:52;9.30;99.90
7512;DHT22;9999;48.780;9.146;2024-03-23T07:47:17;9.10;99.90
7512;DHT22;9999;48.780;9.146;2024-03-23T07:49:45;9.00;99.90
7512;DHT22;9999;48.780;9.146;2024-03-23T07:52:11;9.00;99.90
7512;DHT22;9999;48.780;9.146;2024-03-23T07:54:38;8.90;99.90
7512;DHT22;9999;48.780;9.146;2024-03-23T07:57:04;8.70;99.90
7512;DHT22;9999;48.780;9.146;2024-03-23T07:59:31;8.50;99.90
7512;DHT22;9999;48.780;9.146;2024-03-23T08:01:59;8.30;99.90
7512;DHT22;9999;48.780;9.146;2024-03-23T08:04:27;8.10;99.90
7512;DHT22;9999;48.780;9.146;2024-03-23T08:06:54;8.10;99.90
7512;DHT22;9999;48.780;9.146;2024-03-23T08:09:21;8.00;99.90
7512;DHT22;9999;48.780;9.146;2024-03-23T08:11:47;8.00;99.90
7512;DHT22;9999;48.780;9.146;2024-03-23T08:14:13;8.00;99.90
7512;DHT22;9999;48.780;9.146;2024-03-23T08:16:39;8.10;99.90
7512;DHT22;9999;48.780;9.146;2024-03-23T08:19:07;8.00;99.90
7512;DHT22;9999;48.780;9.146;2024-03-23T08:21:34;8.20;99.90
7512;DHT22;9999;48.780;9.146;2024-03-23T08:24:02;8.20;99.90
7512;DHT22;9999;48.780;9.146;2024-03-23T08:26:28;8.30;99.90
7512;DHT22;9999;48.780;9.146;2024-03-23T08:28:55;8.40;99.90
7512;DHT22;9999;48.780;9.146;2024-03-23T08:31:21;8.40;99.90
7512;DHT22;9999;48.780;9.146;2024-03-23T08:33:48;8.30;99.90
7512;DHT22;9999;48.780;9.146;2024-03-23T08:36:14;8.30;99.90
7512;DHT22;9999;48.780;9.146;2024-03-23T08:38:41;8.30;99.90
7512;DHT22;9999;48.780;9.146;2024-03-23T08:41:09;8.30;99.90
7512;DHT22;9999;48.780;9.146;2024-03-23T08:43:37;8.30;99.90
7512;DHT22;9999;48.780;9.146;2024-03-23T08:46:03;8.30;99.90
7512;DHT22;9999;48.780;9.146;2024-03-23T08:48:31;8.30;99.90
7512;DHT22;9999;48.780;9.146;2024-03-23T08:51:01;8.40;99.90
7512;DHT22;9999;48.780;9.146;2024-03-23T08:53:28;8.60;99.90
7512;DHT22;9999;48.780;9.146;2024-03-23T08:55:54;9.00;99.90
7512;DHT22;9999;48.780;9.146;2024-03-23T08:58:23;9.60;99.90
7512;DHT22;9999;48.780;9.146;2024-03-23T09:00:50;10.00;99.90
7512;DHT22;9999;48.780;9.146;2024-03-23T09:03:16;10.50;99.90
7512;DHT22;9999;48.780;9.146;2024-03-23T09:05:42;10.60;99.90
7512;DHT22;9999;48.780;9.146;2024-03-23T09:08:09;10.30;99.90
7512;DHT22;9999;48.780;9.146;2024-03-23T09:10:38;9.90;99.90
7512;DHT22;9999;48.780;9.146;2024-03-23T09:13:05;9.70;99.90
7512;DHT22;9999;48.780;9.146;2024-03-23T09:15:32;9.40;99.90
7512;DHT22;9999;48.780;9.146;2024-03-23T09:17:59;9.20;99.90
7512;DHT22;9999;48.780;9.146;2024-03-23T09:20:25;9.20;99.90
7512;DHT22;9999;48.780;9.146;2024-03-23T09:22:52;9.00;99.90
7512;DHT22;9999;48.780;9.146;2024-03-23T09:25:17;8.90;99.90
7512;DHT22;9999;48.780;9.146;2024-03-23T09:27:46;9.20;99.90
7512;DHT22;9999;48.780;9.146;2024-03-23T09:30:13;9.20;99.90
7512;DHT22;9999;48.780;9.146;2024-03-23T09:32:42;9.50;99.90
7512;DHT22;9999;48.780;9.146;2024-03-23T09:35:08;9.60;99.90
7512;DHT22;9999;48.780;9.146;2024-03-23T09:37:34;9.80;99.90
7512;DHT22;9999;48.780;9.146;2024-03-23T09:40:00;10.40;99.90
7512;DHT22;9999;48.780;9.146;2024-03-23T09:42:27;10.50;99.90
7512;DHT22;9999;48.780;9.146;2024-03-23T09:44:54;10.30;99.90
7512;DHT22;9999;48.780;9.146;2024-03-23T09:47:24;10.40;99.90
7512;DHT22;9999;48.780;9.146;2024-03-23T09:49:51;10.10;99.90
7512;DHT22;9999;48.780;9.146;2024-03-23T09:52:18;10.10;99.90
7512;DHT22;9999;48.780;9.146;2024-03-23T09:54:44;10.00;99.90
7512;DHT22;9999;48.780;9.146;2024-03-23T09:57:11;10.00;99.90
7512;DHT22;9999;48.780;9.146;2024-03-23T09:59:37;10.10;99.90
7512;DHT22;9999;48.780;9.146;2024-03-23T10:02:05;10.10;99.90
7512;DHT22;9999;48.780;9.146;2024-03-23T10:04:36;10.20;99.90
7512;DHT22;9999;48.780;9.146;2024-03-23T10:07:12;10.10;99.90
7512;DHT22;9999;48.780;9.146;2024-03-23T10:09:38;10.00;99.90
7512;DHT22;9999;48.780;9.146;2024-03-23T10:12:09;9.90;99.90
7512;DHT22;9999;48.780;9.146;2024-03-23T10:14:36;10.20;99.90
7512;DHT22;9999;48.780;9.146;2024-03-23T10:17:14;10.30;99.90
7512;DHT22;9999;48.780;9.146;2024-03-23T10:19:40;10.20;99.90
7512;DHT22;9999;48.780;9.146;2024-03-23T10:22:09;9.90;99.90
7512;DHT22;9999;48.780;9.146;2024-03-23T10:24:36;9.70;99.90
7512;DHT22;9999;48.780;9.146;2024-03-23T10:27:03;9.80;99.90
7512;DHT22;9999;48.780;9.146;2024-03-23T10:29:29;9.70;99.90
7512;DHT22;9999;48.780;9.146;2024-03-23T10:32:07;9.60;99.90
7512;DHT22;9999;48.780;9.146;2024-03-23T10:34:33;9.80;99.90
7512;DHT22;9999;48.780;9.146;2024-03-23T10:37:01;9.80;99.90
7512;DHT22;9999;48.780;9.146;2024-03-23T10:39:28;9.60;99.90
7512;DHT22;9999;48.780;9.146;2024-03-23T10:41:56;9.40;99.90
7512;DHT22;9999;48.780;9.146;2024-03-23T10:44:23;9.30;99.90
7512;DHT22;9999;48.780;9.146;2024-03-23T10:46:50;9.30;99.90
7512;DHT22;9999;48.780;9.146;2024-03-23T10:49:24;9.20;99.90
7512;DHT22;9999;48.780;9.146;2024-03-23T10:51:51;8.90;99.90
7512;DHT22;9999;48.780;9.146;2024-03-23T10:54:18;8.80;99.90
7512;DHT22;9999;48.780;9.146;2024-03-23T10:56:46;8.50;99.90
7512;DHT22;9999;48.780;9.146;2024-03-23T10:59:16;8.10;99.90
7512;DHT22;9999;48.780;9.146;2024-03-23T11:01:54;7.80;99.90
7512;DHT22;9999;48.780;9.146;2024-03-23T11:04:29;7.50;99.90
7512;DHT22;9999;48.780;9.146;2024-03-23T11:06:56;7.20;99.90
7512;DHT22;9999;48.780;9.146;2024-03-23T11:09:41;7.00;99.90
7512;DHT22;9999;48.780;9.146;2024-03-23T11:12:32;7.00;99.90
7512;DHT22;9999;48.780;9.146;2024-03-23T11:15:02;6.90;99.90
7512;DHT22;9999;48.780;9.146;2024-03-23T11:17:31;7.10;99.90
7512;DHT22;9999;48.780;9.146;2024-03-23T11:19:58;7.50;99.90
7512;DHT22;9999;48.780;9.146;2024-03-23T11:22:44;7.70;99.90
7512;DHT22;9999;48.780;9.146;2024-03-23T11:25:17;7.80;99.90
7512;DHT22;9999;48.780;9.146;2024-03-23T11:27:46;8.00;99.90
7512;DHT22;9999;48.780;9.146;2024-03-23T11:30:16;8.30;99.90
7512;DHT22;9999;48.780;9.146;2024-03-23T11:32:44;8.50;99.90
7512;DHT22;9999;48.780;9.146;2024-03-23T11:35:09;8.70;99.90
7512;DHT22;9999;48.780;9.146;2024-03-23T11:37:37;8.80;99.90
7512;DHT22;9999;48.780;9.146;2024-03-23T11:40:17;8.90;99.90
7512;DHT22;9999;48.780;9.146;2024-03-23T11:42:44;8.90;99.90
7512;DHT22;9999;48.780;9.146;2024-03-23T11:45:11;9.30;99.90
7512;DHT22;9999;48.780;9.146;2024-03-23T11:47:39;9.70;99.90
7512;DHT22;9999;48.780;9.146;2024-03-23T11:50:05;9.90;99.90
7512;DHT22;9999;48.780;9.146;2024-03-23T11:52:32;10.00;99.90
7512;DHT22;9999;48.780;9.146;2024-03-23T11:55:03;9.80;99.90
7512;DHT22;9999;48.780;9.146;2024-03-23T11:57:30;9.70;99.90
7512;DHT22;9999;48.780;9.146;2024-03-23T11:59:56;9.50;99.90
7512;DHT22;9999;48.780;9.146;2024-03-23T12:02:23;9.30;99.90
7512;DHT22;9999;48.780;9.146;2024-03-23T12:04:50;9.40;99.90
7512;DHT22;9999;48.780;9.146;2024-03-23T12:07:19;9.20;99.90
7512;DHT22;9999;48.780;9.146;2024-03-23T12:09:46;9.20;99.90
7512;DHT22;9999;48.780;9.146;2024-03-23T12:12:14;9.40;99.90
7512;DHT22;9999;48.780;9.146;2024-03-23T12:14:41;9.30;99.90
7512;DHT22;9999;48.780;9.146;2024-03-23T12:17:10;9.40;99.90
7512;DHT22;9999;48.780;9.146;2024-03-23T12:19:36;9.30;99.90
7512;DHT22;9999;48.780;9.146;2024-03-23T12:22:04;9.20;99.90
7512;DHT22;9999;48.780;9.146;2024-03-23T12:24:31;9.20;99.90
7512;DHT22;9999;48.780;9.146;2024-03-23T12:27:00;9.30;99.90
7512;DHT22;9999;48.780;9.146;2024-03-23T12:29:27;9.20;99.90
7512;DHT22;9999;48.780;9.146;2024-03-23T12:31:54;9.30;99.90
7512;DHT22;9999;48.780;9.146;2024-03-23T12:34:21;9.40;99.90
7512;DHT22;9999;48.780;9.146;2024-03-23T12:36:48;9.80;99.90
7512;DHT22;9999;48.780;9.146;2024-03-23T12:39:15;10.00;99.90
7512;DHT22;9999;48.780;9.146;2024-03-23T12:41:42;10.00;99.90
7512;DHT22;9999;48.780;9.146;2024-03-23T12:44:08;9.90;99.90
7512;DHT22;9999;48.780;9.146;2024-03-23T12:46:37;9.70;99.90
7512;DHT22;9999;48.780;9.146;2024-03-23T12:49:03;9.60;99.90
7512;DHT22;9999;48.780;9.146;2024-03-23T12:51:30;9.50;99.90
7512;DHT22;9999;48.780;9.146;2024-03-23T12:53:56;9.30;99.90
7512;DHT22;9999;48.780;9.146;2024-03-23T12:56:24;9.20;99.90
7512;DHT22;9999;48.780;9.146;2024-03-23T12:58:50;9.10;99.90
7512;DHT22;9999;48.780;9.146;2024-03-23T13:01:19;9.30;99.90
7512;DHT22;9999;48.780;9.146;2024-03-23T13:03:46;9.70;99.90
7512;DHT22;9999;48.780;9.146;2024-03-23T13:06:13;10.10;99.90
7512;DHT22;9999;48.780;9.146;2024-03-23T13:08:39;10.40;99.90
7512;DHT22;9999;48.780;9.146;2024-03-23T13:11:07;10.90;99.90
7512;DHT22;9999;48.780;9.146;2024-03-23T13:13:35;10.90;99.90
7512;DHT22;9999;48.780;9.146;2024-03-23T13:16:03;10.30;99.90
7512;DHT22;9999;48.780;9.146;2024-03-23T13:18:29;10.40;99.90
7512;DHT22;9999;48.780;9.146;2024-03-23T13:20:56;10.60;99.90
7512;DHT22;9999;48.780;9.146;2024-03-23T13:23:22;10.40;99.90
7512;DHT22;9999;48.780;9.146;2024-03-23T13:25:52;10.10;99.90
7512;DHT22;9999;48.780;9.146;2024-03-23T13:28:18;10.00;99.90
7512;DHT22;9999;48.780;9.146;2024-03-23T13:30:54;10.00;99.90
7512;DHT22;9999;48.780;9.146;2024-03-23T13:33:21;9.70;99.90
7512;DHT22;9999;48.780;9.146;2024-03-23T13:35:51;9.60;99.90
7512;DHT22;9999;48.780;9.146;2024-03-23T13:38:17;9.60;99.90
7512;DHT22;9999;48.780;9.146;2024-03-23T13:40:53;9.50;99.90
7512;DHT22;9999;48.780;9.146;2024-03-23T13:43:19;9.70;99.90
7512;DHT22;9999;48.780;9.146;2024-03-23T13:45:47;10.10;99.90
7512;DHT22;9999;48.780;9.146;2024-03-23T13:48:15;10.40;99.90
7512;DHT22;9999;48.780;9.146;2024-03-23T13:50:42;10.50;99.90
7512;DHT22;9999;48.780;9.146;2024-03-23T13:53:07;10.60;99.90
7512;DHT22;9999;48.780;9.146;2024-03-23T13:55:34;10.60;99.90
7512;DHT22;9999;48.780;9.146;2024-03-23T13:58:01;10.60;99.90
7512;DHT22;9999;48.780;9.146;2024-03-23T14:00:28;10.60;99.90
7512;DHT22;9999;48.780;9.146;2024-03-23T14:02:53;10.50;99.90
7512;DHT22;9999;48.780;9.146;2024-03-23T14:05:22;10.20;99.90
7512;DHT22;9999;48.780;9.146;2024-03-23T14:07:47;9.90;99.90
7512;DHT22;9999;48.780;9.146;2024-03-23T14:10:14;9.60;99.90
7512;DHT22;9999;48.780;9.146;2024-03-23T14:12:40;9.30;99.90
7512;DHT22;9999;48.780;9.146;2024-03-23T14:15:08;8.90;99.90
7512;DHT22;9999;48.780;9.146;2024-03-23T14:17:34;8.40;99.90
7512;DHT22;9999;48.780;9.146;2024-03-23T14:20:00;7.90;99.90
7512;DHT22;9999;48.780;9.146;2024-03-23T14:22:28;7.60;99.90
7512;DHT22;9999;48.780;9.146;2024-03-23T14:24:54;7.60;99.90
7512;DHT22;9999;48.780;9.146;2024-03-23T14:27:20;7.30;99.90
7512;DHT22;9999;48.780;9.146;2024-03-23T14:29:48;7.10;99.90
7512;DHT22;9999;48.780;9.146;2024-03-23T14:32:14;7.00;99.90
7512;DHT22;9999;48.780;9.146;2024-03-23T14:34:41;7.00;99.90
7512;DHT22;9999;48.780;9.146;2024-03-23T14:37:07;7.20;99.90
7512;DHT22;9999;48.780;9.146;2024-03-23T14:39:35;7.50;99.90
7512;DHT22;9999;48.780;9.146;2024-03-23T14:42:01;7.50;99.90
7512;DHT22;9999;48.780;9.146;2024-03-23T14:44:28;7.70;99.90
7512;DHT22;9999;48.780;9.146;2024-03-23T14:46:54;7.90;99.90
7512;DHT22;9999;48.780;9.146;2024-03-23T14:49:21;8.10;99.90
7512;DHT22;9999;48.780;9.146;2024-03-23T14:51:47;8.00;99.90
7512;DHT22;9999;48.780;9.146;2024-03-23T14:54:14;7.70;99.90
7512;DHT22;9999;48.780;9.146;2024-03-23T14:56:41;7.40;99.90
7512;DHT22;9999;48.780;9.146;2024-03-23T14:59:08;7.40;99.90
7512;DHT22;9999;48.780;9.146;2024-03-23T15:01:34;7.20;99.90
7512;DHT22;9999;48.780;9.146;2024-03-23T15:04:00;7.10;99.90
7512;DHT22;9999;48.780;9.146;2024-03-23T15:06:26;7.10;99.90
7512;DHT22;9999;48.780;9.146;2024-03-23T15:08:53;7.20;99.90
7512;DHT22;9999;48.780;9.146;2024-03-23T15:11:20;7.20;99.90
7512;DHT22;9999;48.780;9.146;2024-03-23T15:13:49;7.30;99.90
7512;DHT22;9999;48.780;9.146;2024-03-23T15:16:17;7.60;99.90
7512;DHT22;9999;48.780;9.146;2024-03-23T15:18:45;7.70;99.90
7512;DHT22;9999;48.780;9.146;2024-03-23T15:21:11;7.90;99.90
7512;DHT22;9999;48.780;9.146;2024-03-23T15:23:39;8.00;99.90
7512;DHT22;9999;48.780;9.146;2024-03-23T15:26:07;8.10;99.90
7512;DHT22;9999;48.780;9.146;2024-03-23T15:28:34;8.20;99.90
7512;DHT22;9999;48.780;9.146;2024-03-23T15:31:08;8.30;99.90
7512;DHT22;9999;48.780;9.146;2024-03-23T15:33:36;8.30;99.90
7512;DHT22;9999;48.780;9.146;2024-03-23T15:36:02;8.40;99.90
7512;DHT22;9999;48.780;9.146;2024-03-23T15:38:30;8.30;99.90
7512;DHT22;9999;48.780;9.146;2024-03-23T15:40:56;8.20;99.90
7512;DHT22;9999;48.780;9.146;2024-03-23T15:43:23;8.20;99.90
7512;DHT22;9999;48.780;9.146;2024-03-23T15:45:55;8.30;99.90
7512;DHT22;9999;48.780;9.146;2024-03-23T15:48:23;8.30;99.90
7512;DHT22;9999;48.780;9.146;2024-03-23T15:50:51;8.30;99.90
7512;DHT22;9999;48.780;9.146;2024-03-23T15:53:19;8.30;99.90
7512;DHT22;9999;48.780;9.146;2024-03-23T15:55:45;8.40;99.90
7512;DHT22;9999;48.780;9.146;2024-03-23T15:58:11;8.20;99.90
7512;DHT22;9999;48.780;9.146;2024-03-23T16:00:37;8.00;99.90
7512;DHT22;9999;48.780;9.146;2024-03-23T16:03:04;8.00;99.90
7512;DHT22;9999;48.780;9.146;2024-03-23T16:05:32;7.80;99.90
7512;DHT22;9999;48.780;9.146;2024-03-23T16:07:58;7.90;99.90
7512;DHT22;9999;48.780;9.146;2024-03-23T16:10:24;8.00;99.90
7512;DHT22;9999;48.780;9.146;2024-03-23T16:12:51;8.20;99.90
7512;DHT22;9999;48.780;9.146;2024-03-23T16:15:17;8.10;99.90
7512;DHT22;9999;48.780;9.146;2024-03-23T16:17:44;8.00;99.90
7512;DHT22;9999;48.780;9.146;2024-03-23T16:20:11;7.90;99.90
7512;DHT22;9999;48.780;9.146;2024-03-23T16:22:39;7.80;99.90
7512;DHT22;9999;48.780;9.146;2024-03-23T16:25:06;7.70;99.90
7512;DHT22;9999;48.780;9.146;2024-03-23T16:27:33;7.60;99.90
7512;DHT22;9999;48.780;9.146;2024-03-23T16:29:59;7.40;99.90
7512;DHT22;9999;48.780;9.146;2024-03-23T16:32:25;7.30;99.90
7512;DHT22;9999;48.780;9.146;2024-03-23T16:34:53;7.10;99.90
7512;DHT22;9999;48.780;9.146;2024-03-23T16:37:19;7.00;99.90
7512;DHT22;9999;48.780;9.146;2024-03-23T16:39:46;7.00;99.90
7512;DHT22;9999;48.780;9.146;2024-03-23T16:42:13;6.90;99.90
7512;DHT22;9999;48.780;9.146;2024-03-23T16:44:39;6.90;99.90
7512;DHT22;9999;48.780;9.146;2024-03-23T16:47:06;6.90;99.90
7512;DHT22;9999;48.780;9.146;2024-03-23T16:49:33;7.00;99.90
7512;DHT22;9999;48.780;9.146;2024-03-23T16:52:00;6.90;99.90
7512;DHT22;9999;48.780;9.146;2024-03-23T16:54:26;6.70;99.90
7512;DHT22;9999;48.780;9.146;2024-03-23T16:56:54;6.60;99.90
7512;DHT22;9999;48.780;9.146;2024-03-23T16:59:19;6.40;99.90
7512;DHT22;9999;48.780;9.146;2024-03-23T17:01:46;6.40;99.90
7512;DHT22;9999;48.780;9.146;2024-03-23T17:04:12;6.40;99.90